Time;durP1;ratioP1;P1;durP2;ratioP2;P2;SDS_P1;SDS_P2;PMS_P1;PMS_P2;Temp;Humidity;BMP_temperature;BMP_pressure;BME280_temperature;BME280_humidity;BME280_pressure;Samples;Min_cycle;Max_cycle;Signal;HPM_P1;HPM_P2
2021/07/18 00:01:16;;;;;;;9.20;4.00;;;;;;;;;;5020713;28;20301;-56
2021/07/18 00:03:42;;;;;;;14.77;3.25;;;;;;;;;;5023886;28;20041;-55
2021/07/18 00:06:09;;;;;;;9.57;3.83;;;;;;;;;;5018096;28;20034;-51
2021/07/18 00:08:36;;;;;;;9.07;4.10;;;;;;;;;;5025520;28;20038;-51
2021/07/18 00:11:03;;;;;;;8.82;4.32;;;;;;;;;;5037350;28;20064;-50
2021/07/18 00:13:31;;;;;;;11.20;4.22;;;;;;;;;;5022575;28;20033;-53
2021/07/18 00:15:57;;;;;;;8.23;4.45;;;;;;;;;;5018946;28;20061;-49
2021/07/18 00:18:24;;;;;;;12.45;4.22;;;;;;;;;;5005622;28;20042;-54
2021/07/18 00:20:50;;;;;;;10.32;3.83;;;;;;;;;;5008152;28;20056;-54
2021/07/18 00:23:17;;;;;;;13.65;4.47;;;;;;;;;;5039844;28;20046;-53
2021/07/18 00:25:44;;;;;;;9.15;3.80;;;;;;;;;;5032846;28;20041;-49
2021/07/18 00:28:11;;;;;;;10.30;3.58;;;;;;;;;;5023501;28;20030;-52
2021/07/18 00:30:39;;;;;;;12.88;4.35;;;;;;;;;;5023597;28;20045;-53
2021/07/18 00:33:06;;;;;;;8.77;3.85;;;;;;;;;;5026956;28;20045;-54
2021/07/18 00:35:32;;;;;;;8.45;3.60;;;;;;;;;;5024066;28;20111;-51
2021/07/18 00:37:59;;;;;;;8.18;3.47;;;;;;;;;;5047750;28;20150;-54
2021/07/18 00:40:25;;;;;;;9.57;3.97;;;;;;;;;;5047184;28;20090;-56
2021/07/18 00:42:52;;;;;;;8.60;3.20;;;;;;;;;;5043202;28;20037;-56
2021/07/18 00:45:18;;;;;;;7.55;3.42;;;;;;;;;;5048143;28;20118;-56
2021/07/18 00:47:48;;;;;;;8.30;3.83;;;;;;;;;;5041363;28;20044;-56
2021/07/18 00:50:15;;;;;;;12.82;3.50;;;;;;;;;;5029088;28;20063;-55
2021/07/18 00:52:42;;;;;;;8.48;3.13;;;;;;;;;;5023612;28;20053;-54
2021/07/18 00:55:10;;;;;;;8.90;3.92;;;;;;;;;;5027720;28;20037;-55
2021/07/18 00:57:39;;;;;;;8.15;3.35;;;;;;;;;;5038738;28;20049;-54
2021/07/18 01:00:06;;;;;;;9.10;3.35;;;;;;;;;;5041957;28;20044;-52
2021/07/18 01:02:33;;;;;;;10.55;3.45;;;;;;;;;;5034670;28;20045;-52
2021/07/18 01:05:01;;;;;;;6.68;3.70;;;;;;;;;;5026591;28;20037;-56
2021/07/18 01:07:27;;;;;;;7.30;3.83;;;;;;;;;;5026668;28;20037;-55
2021/07/18 01:09:54;;;;;;;8.57;3.20;;;;;;;;;;5026592;28;20060;-55
2021/07/18 01:12:20;;;;;;;7.22;3.38;;;;;;;;;;5039058;28;20052;-54
2021/07/18 01:14:48;;;;;;;8.50;3.95;;;;;;;;;;5028704;28;20037;-55
2021/07/18 01:17:15;;;;;;;6.97;3.50;;;;;;;;;;5026330;28;20045;-55
2021/07/18 01:19:41;;;;;;;9.57;3.85;;;;;;;;;;5064497;28;20037;-53
2021/07/18 01:22:09;;;;;;;9.50;3.60;;;;;;;;;;5063238;28;20044;-55
2021/07/18 01:24:36;;;;;;;9.30;3.72;;;;;;;;;;5040964;28;20168;-56
2021/07/18 01:27:05;;;;;;;10.68;3.40;;;;;;;;;;5045519;28;20060;-55
2021/07/18 01:29:32;;;;;;;6.90;3.50;;;;;;;;;;5042100;28;20048;-56
2021/07/18 01:31:59;;;;;;;8.25;4.05;;;;;;;;;;5045501;28;20045;-55
2021/07/18 01:34:25;;;;;;;8.30;3.50;;;;;;;;;;5046615;28;20045;-52
2021/07/18 01:36:52;;;;;;;6.80;3.60;;;;;;;;;;5010867;28;20073;-52
2021/07/18 01:39:21;;;;;;;8.18;3.70;;;;;;;;;;5035528;28;20060;-51
2021/07/18 01:41:47;;;;;;;7.47;3.47;;;;;;;;;;5046752;28;20089;-53
2021/07/18 01:44:14;;;;;;;8.30;3.83;;;;;;;;;;5051436;28;20065;-49
2021/07/18 01:46:40;;;;;;;9.40;3.67;;;;;;;;;;5045068;28;20037;-49
2021/07/18 01:49:09;;;;;;;11.38;3.90;;;;;;;;;;5057738;28;20085;-52
2021/07/18 01:51:36;;;;;;;11.55;3.65;;;;;;;;;;5044725;28;20033;-53
2021/07/18 01:54:03;;;;;;;7.28;3.67;;;;;;;;;;5039457;28;20056;-52
2021/07/18 01:56:31;;;;;;;8.93;4.10;;;;;;;;;;5044470;28;20044;-52
2021/07/18 01:58:59;;;;;;;10.73;3.70;;;;;;;;;;5039916;28;20068;-54
2021/07/18 02:01:26;;;;;;;11.77;3.70;;;;;;;;;;5034541;28;20040;-52
2021/07/18 02:03:53;;;;;;;8.98;3.92;;;;;;;;;;5042810;28;20274;-55
2021/07/18 02:06:21;;;;;;;9.00;3.20;;;;;;;;;;5043472;28;20044;-54
2021/07/18 02:08:48;;;;;;;;;;;;;;;;;;5045229;28;20053;-54
2021/07/18 02:11:16;;;;;;;8.75;3.67;;;;;;;;;;5040135;28;19932;-56
2021/07/18 02:13:44;;;;;;;7.53;3.58;;;;;;;;;;5045591;28;20033;-55
2021/07/18 02:16:10;;;;;;;10.68;3.78;;;;;;;;;;5027648;28;20061;-56
2021/07/18 02:18:37;;;;;;;9.30;3.67;;;;;;;;;;5042137;28;20048;-51
2021/07/18 02:21:03;;;;;;;7.80;3.50;;;;;;;;;;5034770;28;20048;-53
2021/07/18 02:23:30;;;;;;;7.15;3.28;;;;;;;;;;5044332;28;20036;-53
2021/07/18 02:25:56;;;;;;;6.38;3.03;;;;;;;;;;5042364;28;20048;-54
2021/07/18 02:28:23;;;;;;;8.30;3.67;;;;;;;;;;5046666;28;20025;-53
2021/07/18 02:30:51;;;;;;;7.47;3.58;;;;;;;;;;5041421;28;20126;-52
2021/07/18 02:33:17;;;;;;;10.30;3.72;;;;;;;;;;5045019;28;20102;-55
2021/07/18 02:35:44;;;;;;;7.00;3.17;;;;;;;;;;5054774;28;20142;-56
2021/07/18 02:38:10;;;;;;;11.00;3.85;;;;;;;;;;5026927;28;20061;-53
2021/07/18 02:40:37;;;;;;;8.93;3.70;;;;;;;;;;5028435;28;20099;-55
2021/07/18 02:43:03;;;;;;;8.57;3.50;;;;;;;;;;5029848;28;20052;-51
2021/07/18 02:45:30;;;;;;;9.27;3.88;;;;;;;;;;5057608;28;20029;-56
2021/07/18 02:47:59;;;;;;;8.23;3.50;;;;;;;;;;5045147;28;20033;-55
2021/07/18 02:50:27;;;;;;;8.25;4.32;;;;;;;;;;5047288;28;20081;-55
2021/07/18 02:52:53;;;;;;;8.77;4.13;;;;;;;;;;5024543;28;20056;-53
2021/07/18 02:55:20;;;;;;;11.15;4.22;;;;;;;;;;5042788;28;20033;-51
2021/07/18 02:57:47;;;;;;;13.13;4.43;;;;;;;;;;5037918;28;20049;-53
2021/07/18 03:03:25;;;;;;;9.52;4.22;;;;;;;;;;5034297;22;20072;-52
2021/07/18 03:05:51;;;;;;;9.60;4.18;;;;;;;;;;5036959;28;20038;-53
2021/07/18 03:08:18;;;;;;;11.07;3.90;;;;;;;;;;5013408;28;20046;-51
2021/07/18 03:10:44;;;;;;;11.02;4.72;;;;;;;;;;5024509;28;20233;-53
2021/07/18 03:13:11;;;;;;;15.68;4.88;;;;;;;;;;5030531;28;20057;-51
2021/07/18 03:15:37;;;;;;;14.55;4.85;;;;;;;;;;5024132;28;20045;-54
2021/07/18 03:18:06;;;;;;;13.35;4.57;;;;;;;;;;5017636;28;20072;-52
2021/07/18 03:20:34;;;;;;;14.43;4.90;;;;;;;;;;5021309;28;20034;-51
2021/07/18 03:23:01;;;;;;;15.77;4.65;;;;;;;;;;5022376;28;20041;-52
2021/07/18 03:25:28;;;;;;;13.32;5.53;;;;;;;;;;5016035;28;20051;-53
2021/07/18 03:27:57;;;;;;;14.95;4.85;;;;;;;;;;5041693;28;20066;-51
2021/07/18 03:30:24;;;;;;;15.73;4.75;;;;;;;;;;5021813;28;20037;-50
2021/07/18 03:32:51;;;;;;;14.75;5.22;;;;;;;;;;5025108;28;20045;-49
2021/07/18 03:35:18;;;;;;;9.70;4.05;;;;;;;;;;5017362;28;20053;-52
2021/07/18 03:37:46;;;;;;;11.05;5.07;;;;;;;;;;5020236;28;20045;-52
2021/07/18 03:40:14;;;;;;;10.85;4.30;;;;;;;;;;5021835;28;20131;-53
2021/07/18 03:42:41;;;;;;;11.02;4.75;;;;;;;;;;5034075;28;20042;-53
2021/07/18 03:45:08;;;;;;;9.07;4.40;;;;;;;;;;5041529;28;20088;-53
2021/07/18 03:47:48;;;;;;;11.55;4.65;;;;;;;;;;5015687;28;20126;-49
2021/07/18 03:50:14;;;;;;;14.30;4.88;;;;;;;;;;5041963;28;20045;-54
2021/07/18 03:52:41;;;;;;;13.00;4.75;;;;;;;;;;5016733;28;20069;-53
2021/07/18 03:55:10;;;;;;;11.80;4.07;;;;;;;;;;5042950;28;20045;-54
2021/07/18 03:57:38;;;;;;;;;;;;;;;;;;5018120;28;20099;-52
2021/07/18 04:00:05;;;;;;;9.00;4.05;;;;;;;;;;5019189;28;19921;-53
2021/07/18 04:02:32;;;;;;;10.68;4.20;;;;;;;;;;5026172;28;20061;-51
2021/07/18 04:04:58;;;;;;;10.73;4.55;;;;;;;;;;5039041;28;20069;-51
2021/07/18 04:07:26;;;;;;;16.15;4.75;;;;;;;;;;5030015;28;20041;-52
2021/07/18 04:09:52;;;;;;;8.25;3.78;;;;;;;;;;5018765;28;20034;-52
2021/07/18 04:12:20;;;;;;;9.88;3.72;;;;;;;;;;5025431;28;20037;-50
2021/07/18 04:14:47;;;;;;;10.35;4.15;;;;;;;;;;5013155;28;20045;-49
2021/07/18 04:17:13;;;;;;;9.70;4.30;;;;;;;;;;5030534;28;20037;-47
2021/07/18 04:19:44;;;;;;;11.35;4.07;;;;;;;;;;5027394;28;20037;-54
2021/07/18 04:22:11;;;;;;;11.50;4.53;;;;;;;;;;5044626;28;20042;-50
2021/07/18 04:24:37;;;;;;;12.68;4.20;;;;;;;;;;5041289;28;20034;-50
2021/07/18 04:27:04;;;;;;;10.25;4.55;;;;;;;;;;5024845;28;20034;-50
2021/07/18 04:29:32;;;;;;;10.25;4.30;;;;;;;;;;5026238;28;20061;-54
2021/07/18 04:31:59;;;;;;;10.05;4.07;;;;;;;;;;5023673;28;20045;-46
2021/07/18 04:34:25;;;;;;;8.90;4.25;;;;;;;;;;5047965;28;20033;-52
2021/07/18 04:36:51;;;;;;;10.10;4.32;;;;;;;;;;5044747;28;20048;-52
2021/07/18 04:39:19;;;;;;;8.65;3.90;;;;;;;;;;5031295;28;20038;-53
2021/07/18 04:41:45;;;;;;;8.23;3.97;;;;;;;;;;5015689;28;20117;-48
2021/07/18 04:44:12;;;;;;;11.25;4.38;;;;;;;;;;5030878;28;20057;-52
2021/07/18 04:46:39;;;;;;;9.68;4.28;;;;;;;;;;5023669;28;20059;-48
2021/07/18 04:49:13;;;;;;;11.57;4.17;;;;;;;;;;5024684;28;20044;-51
2021/07/18 04:51:39;;;;;;;10.75;4.35;;;;;;;;;;5034741;28;20286;-51
2021/07/18 04:54:06;;;;;;;14.65;5.47;;;;;;;;;;5026467;28;20042;-50
2021/07/18 04:56:33;;;;;;;9.57;4.20;;;;;;;;;;5024438;28;20042;-49
2021/07/18 04:59:03;;;;;;;12.57;4.78;;;;;;;;;;5010957;28;20065;-52
2021/07/18 05:01:30;;;;;;;10.70;4.75;;;;;;;;;;5041420;28;20037;-51
2021/07/18 05:03:57;;;;;;;9.75;4.20;;;;;;;;;;5045493;28;20045;-48
2021/07/18 05:06:24;;;;;;;12.63;4.60;;;;;;;;;;5044334;28;20040;-52
2021/07/18 05:08:50;;;;;;;13.93;4.47;;;;;;;;;;5045812;28;20029;-51
2021/07/18 05:11:19;;;;;;;11.27;4.60;;;;;;;;;;5027472;28;20056;-49
2021/07/18 05:13:45;;;;;;;9.27;4.28;;;;;;;;;;5021806;28;20034;-54
2021/07/18 05:16:12;;;;;;;9.75;4.13;;;;;;;;;;5009844;28;20096;-54
2021/07/18 05:18:41;;;;;;;11.70;3.55;;;;;;;;;;5021364;28;20126;-51
2021/07/18 05:21:09;;;;;;;12.50;4.40;;;;;;;;;;5044891;28;20037;-52
2021/07/18 05:23:36;;;;;;;14.73;4.53;;;;;;;;;;5029489;28;20131;-51
2021/07/18 05:26:02;;;;;;;12.55;4.72;;;;;;;;;;5008370;28;20286;-52
2021/07/18 05:28:30;;;;;;;11.23;4.70;;;;;;;;;;5024490;28;20115;-51
2021/07/18 05:30:56;;;;;;;14.07;4.47;;;;;;;;;;5025273;28;20033;-52
2021/07/18 05:33:23;;;;;;;14.30;4.57;;;;;;;;;;5036897;28;20044;-52
2021/07/18 05:35:52;;;;;;;10.02;4.22;;;;;;;;;;5027655;28;20033;-53
2021/07/18 05:38:25;;;;;;;8.80;4.35;;;;;;;;;;5003157;28;20038;-53
2021/07/18 05:40:52;;;;;;;9.55;4.38;;;;;;;;;;5008908;28;20041;-54
2021/07/18 05:43:21;;;;;;;9.90;4.32;;;;;;;;;;5027510;28;20045;-54
2021/07/18 05:45:47;;;;;;;;;;;;;;;;;;5026135;28;20058;-52
2021/07/18 05:48:20;;;;;;;13.32;4.53;;;;;;;;;;5021142;28;19914;-52
2021/07/18 05:50:48;;;;;;;11.43;4.53;;;;;;;;;;5040709;28;20038;-53
2021/07/18 05:53:14;;;;;;;9.82;4.18;;;;;;;;;;5042112;28;20038;-55
2021/07/18 05:55:42;;;;;;;11.98;3.88;;;;;;;;;;5040917;28;20100;-51
2021/07/18 05:58:29;;;;;;;12.37;4.37;;;;;;;;;;5045175;28;20056;-53
2021/07/18 06:00:55;;;;;;;8.57;4.18;;;;;;;;;;5022614;28;20291;-52
2021/07/18 06:03:22;;;;;;;12.88;4.50;;;;;;;;;;5006502;28;20030;-51
2021/07/18 06:05:48;;;;;;;12.02;4.25;;;;;;;;;;5003695;28;20103;-50
2021/07/18 06:08:17;;;;;;;9.23;4.30;;;;;;;;;;5012504;28;20052;-51
2021/07/18 06:10:45;;;;;;;12.30;4.28;;;;;;;;;;5017943;28;20042;-51
2021/07/18 06:13:11;;;;;;;12.05;5.00;;;;;;;;;;4982998;28;20057;-56
2021/07/18 06:15:38;;;;;;;9.02;4.30;;;;;;;;;;5011344;28;20075;-54
2021/07/18 06:18:05;;;;;;;13.73;4.57;;;;;;;;;;5005575;28;20042;-53
2021/07/18 06:20:32;;;;;;;9.47;4.13;;;;;;;;;;5003876;28;20049;-52
2021/07/18 06:22:58;;;;;;;15.15;4.03;;;;;;;;;;5006285;28;20181;-53
2021/07/18 06:25:25;;;;;;;11.93;4.43;;;;;;;;;;5002301;28;20053;-52
2021/07/18 06:27:53;;;;;;;11.00;4.53;;;;;;;;;;5006053;28;20128;-55
2021/07/18 06:30:19;;;;;;;11.40;4.30;;;;;;;;;;5002527;28;20042;-55
2021/07/18 06:32:46;;;;;;;9.73;4.32;;;;;;;;;;5006808;28;20030;-58
2021/07/18 06:35:12;;;;;;;12.45;5.05;;;;;;;;;;5002831;28;20043;-54
2021/07/18 06:37:41;;;;;;;11.45;4.60;;;;;;;;;;5007623;28;20108;-51
2021/07/18 06:40:07;;;;;;;;;;;;;;;;;;5005348;28;20030;-53
2021/07/18 06:42:35;;;;;;;11.02;4.00;;;;;;;;;;4999977;28;19928;-54
2021/07/18 06:45:03;;;;;;;10.55;4.38;;;;;;;;;;5020810;28;20046;-49
2021/07/18 06:47:31;;;;;;;11.02;4.40;;;;;;;;;;5014679;28;20042;-56
2021/07/18 06:49:58;;;;;;;7.70;3.25;;;;;;;;;;5003734;28;20062;-52
2021/07/18 06:52:25;;;;;;;10.48;4.00;;;;;;;;;;5000470;28;20040;-52
2021/07/18 06:54:51;;;;;;;8.45;3.42;;;;;;;;;;5004095;28;20048;-51
2021/07/18 06:57:19;;;;;;;7.40;4.00;;;;;;;;;;5002630;28;20046;-55
2021/07/18 06:59:46;;;;;;;8.27;3.60;;;;;;;;;;5005255;28;20041;-55
2021/07/18 07:02:13;;;;;;;10.18;3.65;;;;;;;;;;4998493;28;20298;-53
2021/07/18 07:04:40;;;;;;;7.30;3.40;;;;;;;;;;5026259;28;20095;-56
2021/07/18 07:07:07;;;;;;;8.52;3.60;;;;;;;;;;5024069;28;20093;-52
2021/07/18 07:09:33;;;;;;;6.15;2.92;;;;;;;;;;5041813;28;20033;-56
2021/07/18 07:12:00;;;;;;;8.45;3.50;;;;;;;;;;5037671;28;20030;-53
2021/07/18 07:14:26;;;;;;;8.63;3.15;;;;;;;;;;5007210;28;20049;-57
2021/07/18 07:16:53;;;;;;;6.35;3.28;;;;;;;;;;5029523;28;20084;-55
2021/07/18 07:19:29;;;;;;;11.57;3.55;;;;;;;;;;5025025;28;20120;-56
2021/07/18 07:21:56;;;;;;;11.98;3.00;;;;;;;;;;5004859;28;20168;-55
2021/07/18 07:24:22;;;;;;;6.25;2.58;;;;;;;;;;5041479;28;20025;-54
2021/07/18 07:26:49;;;;;;;6.18;2.72;;;;;;;;;;5041883;28;20038;-54
2021/07/18 07:29:16;;;;;;;7.97;2.72;;;;;;;;;;5031286;28;20042;-51
2021/07/18 07:31:42;;;;;;;9.13;3.00;;;;;;;;;;5044181;28;20040;-57
2021/07/18 07:34:09;;;;;;;9.55;2.70;;;;;;;;;;5037906;28;20041;-57
2021/07/18 07:36:39;;;;;;;5.57;2.55;;;;;;;;;;5024682;28;20037;-58
2021/07/18 07:39:07;;;;;;;7.40;3.20;;;;;;;;;;5035892;28;20053;-55
2021/07/18 07:41:34;;;;;;;6.47;2.67;;;;;;;;;;5035510;28;20042;-57
2021/07/18 07:44:00;;;;;;;6.88;2.58;;;;;;;;;;5044615;28;20041;-52
2021/07/18 07:46:27;;;;;;;11.73;3.05;;;;;;;;;;5047280;28;20119;-57
2021/07/18 07:48:56;;;;;;;5.53;2.67;;;;;;;;;;5033410;28;20046;-57
2021/07/18 07:51:22;;;;;;;8.00;2.92;;;;;;;;;;5027895;28;20054;-58
2021/07/18 07:53:51;;;;;;;9.73;4.80;;;;;;;;;;5030097;28;20095;-58
2021/07/18 07:56:18;;;;;;;7.78;2.90;;;;;;;;;;5027600;28;20048;-53
2021/07/18 07:58:53;;;;;;;5.45;2.50;;;;;;;;;;5028116;28;20026;-55
2021/07/18 08:01:20;;;;;;;4.93;2.28;;;;;;;;;;5026571;28;20057;-54
2021/07/18 08:03:46;;;;;;;8.23;2.20;;;;;;;;;;5039943;28;20107;-56
2021/07/18 08:06:12;;;;;;;7.63;2.42;;;;;;;;;;5041710;28;20090;-58
2021/07/18 08:08:39;;;;;;;9.10;2.90;;;;;;;;;;5026521;28;20030;-57
2021/07/18 08:11:08;;;;;;;10.98;3.22;;;;;;;;;;5026329;28;20038;-59
2021/07/18 08:13:34;;;;;;;7.20;2.60;;;;;;;;;;5028392;28;20038;-56
2021/07/18 08:16:02;;;;;;;6.72;2.40;;;;;;;;;;5044063;28;20056;-59
2021/07/18 08:18:38;;;;;;;7.85;2.65;;;;;;;;;;5015497;28;20041;-52
2021/07/18 08:21:05;;;;;;;6.90;2.65;;;;;;;;;;5026788;28;20041;-57
2021/07/18 08:23:32;;;;;;;8.90;2.55;;;;;;;;;;5030586;28;20115;-59
2021/07/18 08:25:58;;;;;;;7.40;2.42;;;;;;;;;;5041197;28;20045;-54
2021/07/18 08:28:30;;;;;;;8.30;2.55;;;;;;;;;;5030035;28;20057;-54
2021/07/18 08:30:56;;;;;;;7.57;2.55;;;;;;;;;;5015380;28;20022;-57
2021/07/18 08:33:23;;;;;;;6.90;2.33;;;;;;;;;;5010888;28;20034;-58
2021/07/18 08:35:49;;;;;;;7.15;3.20;;;;;;;;;;5021314;28;20048;-54
2021/07/18 08:38:20;;;;;;;12.52;3.65;;;;;;;;;;5065025;28;20037;-56
2021/07/18 08:40:49;;;;;;;8.05;2.75;;;;;;;;;;5055728;28;20049;-60
2021/07/18 08:43:16;;;;;;;7.22;2.40;;;;;;;;;;5047012;28;20040;-60
2021/07/18 08:45:44;;;;;;;8.13;2.05;;;;;;;;;;5042710;28;20033;-60
2021/07/18 08:48:10;;;;;;;5.20;2.15;;;;;;;;;;5045810;28;20033;-54
2021/07/18 08:50:37;;;;;;;6.05;2.08;;;;;;;;;;5038800;28;20043;-59
2021/07/18 08:53:04;;;;;;;9.23;2.30;;;;;;;;;;5043790;28;20038;-54
2021/07/18 08:55:31;;;;;;;5.85;2.00;;;;;;;;;;5025754;28;20044;-57
2021/07/18 08:58:00;;;;;;;6.30;1.77;;;;;;;;;;5009454;28;20041;-58
2021/07/18 09:00:26;;;;;;;4.00;1.90;;;;;;;;;;5026783;28;20030;-55
2021/07/18 09:02:54;;;;;;;5.80;2.10;;;;;;;;;;5037786;28;20045;-57
2021/07/18 09:05:21;;;;;;;5.18;1.90;;;;;;;;;;5026321;28;20045;-57
2021/07/18 09:07:52;;;;;;;5.60;1.90;;;;;;;;;;5025025;28;20049;-53
2021/07/18 09:10:20;;;;;;;7.63;1.90;;;;;;;;;;5043903;28;20048;-56
2021/07/18 09:12:47;;;;;;;;;;;;;;;;;;5041291;28;20069;-56
2021/07/18 09:15:13;;;;;;;4.97;1.75;;;;;;;;;;5028013;28;19936;-57
2021/07/18 09:18:01;;;;;;;5.70;1.73;;;;;;;;;;5046295;28;20033;-56
2021/07/18 09:20:38;;;;;;;6.93;1.80;;;;;;;;;;5030903;28;20052;-55
2021/07/18 09:23:09;;;;;;;8.02;1.98;;;;;;;;;;5024086;28;20037;-58
2021/07/18 09:25:36;;;;;;;4.70;2.00;;;;;;;;;;5028888;28;20045;-57
2021/07/18 09:28:10;;;;;;;4.95;1.85;;;;;;;;;;5041883;28;20033;-54
2021/07/18 09:30:37;;;;;;;7.57;1.95;;;;;;;;;;5046087;28;20041;-53
2021/07/18 09:33:03;;;;;;;8.27;1.70;;;;;;;;;;5042268;28;20033;-56
2021/07/18 09:35:31;;;;;;;3.83;1.70;;;;;;;;;;5046545;28;20029;-55
2021/07/18 09:38:05;;;;;;;6.38;1.90;;;;;;;;;;5041385;28;20075;-52
2021/07/18 09:40:34;;;;;;;5.63;1.73;;;;;;;;;;5027316;28;20118;-55
2021/07/18 09:43:01;;;;;;;3.03;1.50;;;;;;;;;;5037339;28;20048;-55
2021/07/18 09:45:29;;;;;;;3.22;1.50;;;;;;;;;;5024615;28;20052;-56
2021/07/18 09:48:01;;;;;;;6.32;1.63;;;;;;;;;;5026722;28;20057;-56
2021/07/18 09:50:34;;;;;;;4.35;1.75;;;;;;;;;;5045240;28;20029;-51
2021/07/18 09:53:11;;;;;;;4.45;1.50;;;;;;;;;;5040354;28;20022;-56
2021/07/18 09:55:38;;;;;;;4.15;1.50;;;;;;;;;;5045521;28;20037;-57
2021/07/18 09:58:06;;;;;;;3.55;1.60;;;;;;;;;;5042526;28;20048;-56
2021/07/18 10:00:32;;;;;;;;;;;;;;;;;;5026420;28;20042;-55
2021/07/18 10:03:09;;;;;;;4.55;1.60;;;;;;;;;;5022379;28;19925;-58
2021/07/18 10:05:37;;;;;;;4.03;1.70;;;;;;;;;;5024030;28;20026;-57
2021/07/18 10:08:05;;;;;;;4.32;1.70;;;;;;;;;;5007528;28;20033;-58
2021/07/18 10:10:32;;;;;;;3.85;1.50;;;;;;;;;;5022725;28;20053;-57
2021/07/18 10:12:59;;;;;;;3.80;1.42;;;;;;;;;;5024521;28;20038;-59
2021/07/18 10:15:26;;;;;;;6.95;2.00;;;;;;;;;;5006267;28;20054;-58
2021/07/18 10:17:56;;;;;;;4.63;1.73;;;;;;;;;;5010058;28;20054;-58
2021/07/18 10:20:22;;;;;;;3.85;1.77;;;;;;;;;;5005136;28;20085;-58
2021/07/18 10:22:52;;;;;;;4.63;1.77;;;;;;;;;;5025632;28;20033;-59
2021/07/18 10:25:18;;;;;;;4.72;1.85;;;;;;;;;;5027981;28;20050;-54
2021/07/18 10:27:47;;;;;;;5.25;1.70;;;;;;;;;;5008666;28;20052;-56
2021/07/18 10:30:16;;;;;;;3.75;1.70;;;;;;;;;;5013292;28;20033;-58
2021/07/18 10:32:43;;;;;;;4.18;1.80;;;;;;;;;;5027295;28;20134;-59
2021/07/18 10:35:11;;;;;;;6.13;1.67;;;;;;;;;;5034936;28;20041;-53
2021/07/18 10:37:53;;;;;;;4.60;1.70;;;;;;;;;;5030865;28;20056;-56
2021/07/18 10:40:21;;;;;;;4.35;2.30;;;;;;;;;;5008814;28;20045;-58
2021/07/18 10:42:48;;;;;;;3.80;1.77;;;;;;;;;;5024444;28;20042;-55
2021/07/18 10:45:19;;;;;;;5.60;1.83;;;;;;;;;;5041415;28;20040;-57
2021/07/18 10:47:55;;;;;;;6.13;1.80;;;;;;;;;;5044405;28;20114;-56
2021/07/18 10:50:43;;;;;;;5.00;1.80;;;;;;;;;;5039168;28;20045;-55
2021/07/18 10:53:21;;;;;;;4.50;1.70;;;;;;;;;;5045312;28;20052;-51
2021/07/18 10:55:48;;;;;;;5.10;1.70;;;;;;;;;;5047979;28;20046;-57
2021/07/18 10:58:29;;;;;;;3.80;1.70;;;;;;;;;;5046392;28;20037;-56
2021/07/18 11:00:57;;;;;;;5.95;1.80;;;;;;;;;;5041000;28;20085;-57
2021/07/18 11:03:33;;;;;;;5.70;2.20;;;;;;;;;;5044543;28;20038;-57
2021/07/18 11:06:19;;;;;;;3.58;1.60;;;;;;;;;;5039604;28;20025;-57
2021/07/18 11:09:10;;;;;;;4.82;1.80;;;;;;;;;;5045673;28;20137;-57
2021/07/18 11:11:39;;;;;;;7.95;1.90;;;;;;;;;;5002493;28;20037;-56
2021/07/18 11:14:21;;;;;;;5.03;1.90;;;;;;;;;;5006723;28;20033;-57
2021/07/18 11:16:48;;;;;;;4.75;1.70;;;;;;;;;;5022795;28;20042;-57
2021/07/18 11:19:30;;;;;;;5.65;1.85;;;;;;;;;;5041578;28;20033;-53
2021/07/18 11:21:57;;;;;;;5.72;2.20;;;;;;;;;;5026025;28;20045;-54
2021/07/18 11:24:38;;;;;;;5.35;1.88;;;;;;;;;;5044050;28;20052;-57
2021/07/18 11:27:19;;;;;;;6.53;2.00;;;;;;;;;;5024166;28;20037;-57
2021/07/18 11:29:47;;;;;;;7.50;2.08;;;;;;;;;;5026639;28;20045;-58
2021/07/18 11:32:21;;;;;;;5.82;2.08;;;;;;;;;;5037719;28;20030;-58
2021/07/18 11:34:48;;;;;;;5.75;2.88;;;;;;;;;;5023206;28;20131;-54
2021/07/18 11:37:15;;;;;;;5.32;2.10;;;;;;;;;;5037533;28;20053;-56
2021/07/18 11:39:43;;;;;;;4.55;2.08;;;;;;;;;;5038939;28;20191;-59
2021/07/18 11:42:11;;;;;;;5.13;1.95;;;;;;;;;;5038981;28;20037;-58
2021/07/18 11:44:40;;;;;;;3.97;1.65;;;;;;;;;;5006382;28;20041;-58
2021/07/18 11:47:09;;;;;;;4.05;1.85;;;;;;;;;;5022906;28;20048;-59
2021/07/18 11:49:44;;;;;;;4.45;1.92;;;;;;;;;;5040096;28;20049;-58
2021/07/18 11:52:11;;;;;;;5.97;2.17;;;;;;;;;;5043692;28;20037;-56
2021/07/18 11:54:38;;;;;;;4.00;1.80;;;;;;;;;;5041607;28;20107;-56
2021/07/18 11:57:09;;;;;;;4.15;1.65;;;;;;;;;;5044791;28;20045;-58
2021/07/18 11:59:38;;;;;;;4.50;1.73;;;;;;;;;;5027175;28;20045;-54
2021/07/18 12:02:05;;;;;;;5.75;1.92;;;;;;;;;;5039659;28;20119;-58
2021/07/18 12:04:33;;;;;;;6.13;1.95;;;;;;;;;;5037926;28;20029;-56
2021/07/18 12:07:00;;;;;;;4.15;1.92;;;;;;;;;;5042636;28;20040;-53
2021/07/18 12:09:37;;;;;;;6.97;1.90;;;;;;;;;;5028974;28;20030;-58
2021/07/18 12:12:04;;;;;;;4.13;1.73;;;;;;;;;;5022722;28;21038;-55
2021/07/18 12:14:34;;;;;;;6.00;2.20;;;;;;;;;;5012595;28;20037;-56
2021/07/18 12:17:01;;;;;;;3.40;1.70;;;;;;;;;;5044230;28;20044;-58
2021/07/18 12:19:29;;;;;;;4.78;2.17;;;;;;;;;;5040067;28;20072;-58
2021/07/18 12:21:57;;;;;;;5.10;2.42;;;;;;;;;;5027761;28;20026;-58
2021/07/18 12:24:26;;;;;;;4.10;2.10;;;;;;;;;;5020087;28;20041;-59
2021/07/18 12:27:04;;;;;;;4.10;1.77;;;;;;;;;;5025758;28;20066;-56
2021/07/18 12:29:48;;;;;;;4.60;1.92;;;;;;;;;;5027477;28;20045;-58
2021/07/18 12:32:15;;;;;;;3.47;1.70;;;;;;;;;;5057017;28;20037;-51
2021/07/18 12:34:43;;;;;;;3.88;1.60;;;;;;;;;;5045231;28;20292;-55
2021/07/18 12:37:12;;;;;;;3.70;1.90;;;;;;;;;;5046380;28;20048;-59
2021/07/18 12:39:39;;;;;;;4.88;1.70;;;;;;;;;;5025782;28;20098;-56
2021/07/18 12:42:07;;;;;;;7.00;1.70;;;;;;;;;;5031531;28;20076;-53
2021/07/18 12:44:36;;;;;;;4.32;2.08;;;;;;;;;;5012183;28;20038;-58
2021/07/18 12:47:16;;;;;;;5.38;1.75;;;;;;;;;;5024880;28;20030;-59
2021/07/18 12:49:42;;;;;;;9.07;1.70;;;;;;;;;;5046697;28;20047;-56
2021/07/18 12:52:09;;;;;;;6.60;1.92;;;;;;;;;;5042361;28;20056;-54
2021/07/18 12:54:38;;;;;;;7.35;2.15;;;;;;;;;;5045723;28;20125;-57
2021/07/18 12:57:05;;;;;;;5.28;1.80;;;;;;;;;;5041681;28;20115;-57
2021/07/18 12:59:35;;;;;;;4.40;1.75;;;;;;;;;;5027819;28;20041;-57
2021/07/18 13:02:14;;;;;;;8.00;1.80;;;;;;;;;;5037231;28;20048;-57
2021/07/18 13:04:43;;;;;;;5.18;2.10;;;;;;;;;;5042435;28;20041;-55
2021/07/18 13:07:10;;;;;;;3.42;1.70;;;;;;;;;;5025389;28;20061;-56
2021/07/18 13:09:38;;;;;;;8.38;2.20;;;;;;;;;;5039950;28;20034;-57
2021/07/18 13:12:05;;;;;;;5.47;1.70;;;;;;;;;;5007499;28;20053;-56
2021/07/18 13:14:34;;;;;;;4.90;1.80;;;;;;;;;;5025839;28;20057;-55
2021/07/18 13:17:05;;;;;;;3.90;1.67;;;;;;;;;;5038584;28;20042;-56
2021/07/18 13:19:42;;;;;;;4.13;1.92;;;;;;;;;;5022562;28;20053;-54
2021/07/18 13:22:09;;;;;;;4.55;1.63;;;;;;;;;;5023388;28;20026;-58
2021/07/18 13:24:39;;;;;;;4.57;2.05;;;;;;;;;;5026299;28;20045;-54
2021/07/18 13:27:10;;;;;;;5.10;1.80;;;;;;;;;;5044472;28;20077;-56
2021/07/18 13:29:39;;;;;;;4.93;1.90;;;;;;;;;;5039168;28;20058;-56
2021/07/18 13:32:09;;;;;;;4.50;1.90;;;;;;;;;;5028911;28;20060;-56
2021/07/18 13:34:35;;;;;;;3.15;1.70;;;;;;;;;;5023771;28;20046;-55
2021/07/18 13:37:02;;;;;;;6.85;2.20;;;;;;;;;;5042473;28;20033;-53
2021/07/18 13:39:29;;;;;;;8.07;2.53;;;;;;;;;;5023523;28;20046;-54
2021/07/18 13:42:10;;;;;;;5.70;2.20;;;;;;;;;;5042287;28;20037;-58
2021/07/18 13:44:37;;;;;;;3.72;2.00;;;;;;;;;;5019836;28;20045;-57
2021/07/18 13:47:04;;;;;;;3.40;1.83;;;;;;;;;;5046594;28;20033;-57
2021/07/18 13:49:33;;;;;;;4.53;2.05;;;;;;;;;;5039760;28;20065;-58
2021/07/18 13:52:00;;;;;;;4.80;2.10;;;;;;;;;;5045561;28;20043;-56
2021/07/18 13:54:29;;;;;;;3.25;1.60;;;;;;;;;;5031084;28;20112;-57
2021/07/18 13:56:55;;;;;;;4.35;2.03;;;;;;;;;;5026021;28;20091;-57
2021/07/18 13:59:35;;;;;;;5.43;2.30;;;;;;;;;;5028566;28;20041;-56
2021/07/18 14:02:02;;;;;;;7.68;2.03;;;;;;;;;;5045330;28;20044;-55
2021/07/18 14:04:28;;;;;;;4.30;1.95;;;;;;;;;;5041992;28;20123;-57
2021/07/18 14:06:54;;;;;;;7.80;1.92;;;;;;;;;;5045227;28;20032;-58
2021/07/18 14:09:31;;;;;;;3.38;1.85;;;;;;;;;;5043588;28;20095;-59
2021/07/18 14:11:57;;;;;;;5.40;2.25;;;;;;;;;;5029480;28;20033;-58
2021/07/18 14:14:24;;;;;;;7.40;1.88;;;;;;;;;;5040517;28;20041;-58
2021/07/18 14:16:52;;;;;;;4.32;2.28;;;;;;;;;;5044848;28;20037;-58
2021/07/18 14:19:18;;;;;;;3.13;1.83;;;;;;;;;;5038830;28;20040;-57
2021/07/18 14:21:45;;;;;;;3.83;1.80;;;;;;;;;;5040964;28;20086;-58
2021/07/18 14:24:12;;;;;;;4.78;1.63;;;;;;;;;;5043948;28;20040;-54
2021/07/18 14:26:38;;;;;;;5.63;1.88;;;;;;;;;;5040858;28;20048;-59
2021/07/18 14:29:05;;;;;;;6.47;2.33;;;;;;;;;;5028016;28;20041;-57
2021/07/18 14:31:32;;;;;;;3.80;1.80;;;;;;;;;;5021074;28;20048;-58
2021/07/18 14:34:01;;;;;;;2.65;1.58;;;;;;;;;;5045290;28;20049;-56
2021/07/18 14:36:29;;;;;;;5.55;2.10;;;;;;;;;;5028337;28;20085;-58
2021/07/18 14:39:00;;;;;;;5.20;2.45;;;;;;;;;;5017014;28;20049;-58
2021/07/18 14:41:27;;;;;;;5.90;2.10;;;;;;;;;;5040106;28;20029;-55
2021/07/18 14:43:53;;;;;;;4.70;2.28;;;;;;;;;;5033888;28;20045;-58
2021/07/18 14:46:22;;;;;;;8.10;3.05;;;;;;;;;;5034469;28;20048;-56
2021/07/18 14:48:49;;;;;;;6.53;2.97;;;;;;;;;;5043151;28;20176;-59
2021/07/18 14:51:17;;;;;;;7.28;2.40;;;;;;;;;;5021970;28;20041;-58